createdAt,value
2023-03-02T00:01:00.792Z,6.03
2023-03-02T00:03:31.052Z,5.68
2023-03-02T00:06:00.373Z,6.10
2023-03-02T00:08:29.287Z,6.47
2023-03-02T00:10:58.897Z,6.60
2023-03-02T00:13:26.617Z,5.95
2023-03-02T00:15:54.413Z,5.85
2023-03-02T00:18:22.202Z,5.85
2023-03-02T00:20:51.439Z,5.82
2023-03-02T00:23:19.210Z,5.88
2023-03-02T00:25:47.026Z,5.65
2023-03-02T00:28:14.761Z,6.00
2023-03-02T00:30:42.681Z,6.57
2023-03-02T00:33:10.433Z,6.22
2023-03-02T00:35:39.149Z,5.80
2023-03-02T00:38:08.867Z,6.00
2023-03-02T00:40:37.170Z,5.60
2023-03-02T00:43:05.042Z,5.45
2023-03-02T00:45:32.787Z,5.72
2023-03-02T00:48:00.482Z,5.82
2023-03-02T00:50:28.303Z,5.82
2023-03-02T00:52:56.165Z,5.93
2023-03-02T00:55:25.336Z,5.95
2023-03-02T00:57:55.066Z,5.93
2023-03-02T01:00:28.493Z,5.50
2023-03-02T01:02:59.603Z,5.45
2023-03-02T01:05:27.606Z,6.03
2023-03-02T01:07:55.491Z,5.25
2023-03-02T01:10:23.274Z,5.10
2023-03-02T01:12:52.392Z,5.45
2023-03-02T01:15:20.419Z,5.40
2023-03-02T01:17:48.197Z,5.18
2023-03-02T01:20:16.565Z,4.93
2023-03-02T01:22:44.632Z,5.50
2023-03-02T01:25:13.829Z,5.25
2023-03-02T01:27:42.644Z,5.00
2023-03-02T01:30:13.697Z,5.28
2023-03-02T01:32:41.464Z,5.03
2023-03-02T01:35:10.158Z,5.10
2023-03-02T01:37:38.032Z,5.10
2023-03-02T01:40:06.872Z,5.07
2023-03-02T01:42:38.126Z,4.93
2023-03-02T01:45:07.383Z,5.13
2023-03-02T01:47:40.011Z,5.07
2023-03-02T01:50:20.911Z,4.90
2023-03-02T01:52:51.021Z,5.03
2023-03-02T01:55:29.051Z,5.20
2023-03-02T01:57:59.126Z,5.00
2023-03-02T02:00:30.792Z,4.68
2023-03-02T02:03:09.243Z,5.25
2023-03-02T02:05:40.018Z,4.93
2023-03-02T02:08:08.449Z,5.00
2023-03-02T02:10:36.991Z,5.13
2023-03-02T02:13:04.805Z,5.13
2023-03-02T02:15:32.639Z,4.95
2023-03-02T02:18:01.803Z,5.28
2023-03-02T02:20:35.175Z,5.28
2023-03-02T02:23:17.385Z,5.00
2023-03-02T02:25:55.375Z,4.93
2023-03-02T02:28:28.889Z,5.03
2023-03-02T02:31:07.823Z,5.07
2023-03-02T02:33:37.584Z,5.03
2023-03-02T02:36:09.272Z,5.38
2023-03-02T02:38:40.788Z,5.90
2023-03-02T02:41:19.197Z,4.90
2023-03-02T02:43:47.226Z,4.80
2023-03-02T02:46:15.037Z,4.63
2023-03-02T02:48:42.853Z,5.45
2023-03-02T02:51:19.084Z,5.30
2023-03-02T02:53:51.113Z,4.75
2023-03-02T02:56:20.455Z,5.03
2023-03-02T02:58:52.703Z,4.38
2023-03-02T03:01:25.435Z,5.22
2023-03-02T03:06:26.702Z,4.07
2023-03-02T03:09:01.998Z,4.88
2023-03-02T03:11:53.583Z,4.40
2023-03-02T03:14:25.772Z,4.93
2023-03-02T03:16:55.098Z,5.22
2023-03-02T03:19:24.972Z,5.07
2023-03-02T03:21:56.156Z,5.78
2023-03-02T03:24:26.785Z,5.07
2023-03-02T03:26:57.054Z,4.97
2023-03-02T03:29:29.308Z,5.32
2023-03-02T03:32:01.526Z,5.45
2023-03-02T03:34:31.842Z,5.35
2023-03-02T03:37:01.735Z,5.20
2023-03-02T03:39:32.827Z,5.50
2023-03-02T03:42:02.242Z,6.03
2023-03-02T03:44:30.612Z,5.90
2023-03-02T03:46:58.826Z,5.45
2023-03-02T03:49:27.312Z,5.40
2023-03-02T03:51:56.238Z,5.53
2023-03-02T03:54:24.640Z,5.50
2023-03-02T03:56:52.545Z,5.18
2023-03-02T03:59:24.028Z,5.20
2023-03-02T04:01:57.776Z,5.28
2023-03-02T04:04:30.897Z,5.47
2023-03-02T04:06:59.159Z,4.90
2023-03-02T04:09:27.865Z,5.00
2023-03-02T04:11:58.276Z,5.20
2023-03-02T04:14:28.787Z,5.20
2023-03-02T04:16:57.582Z,5.20
2023-03-02T04:19:27.095Z,5.60
2023-03-02T04:22:01.943Z,5.43
2023-03-02T04:24:29.811Z,4.93
2023-03-02T04:27:00.839Z,5.35
2023-03-02T04:29:32.358Z,5.20
2023-03-02T04:32:01.727Z,5.15
2023-03-02T04:34:30.962Z,5.10
2023-03-02T04:36:59.009Z,4.85
2023-03-02T04:39:27.625Z,5.07
2023-03-02T04:41:55.583Z,5.00
2023-03-02T04:44:23.786Z,5.25
2023-03-02T04:46:53.030Z,5.00
2023-03-02T04:49:21.269Z,5.65
2023-03-02T04:51:50.372Z,5.15
2023-03-02T04:54:20.559Z,4.47
2023-03-02T04:56:48.541Z,4.80
2023-03-02T04:59:17.005Z,4.82
2023-03-02T05:01:44.873Z,5.28
2023-03-02T05:04:14.115Z,4.88
2023-03-02T05:06:41.876Z,5.03
2023-03-02T05:09:09.715Z,5.30
2023-03-02T05:11:38.116Z,6.28
2023-03-02T05:14:07.795Z,5.97
2023-03-02T05:16:37.546Z,5.32
2023-03-02T05:19:07.217Z,5.90
2023-03-02T05:21:36.891Z,5.40
2023-03-02T05:24:05.264Z,5.70
2023-03-02T05:26:33.767Z,5.80
2023-03-02T05:29:01.716Z,5.20
2023-03-02T05:31:34.933Z,5.20
2023-03-02T05:34:03.341Z,5.25
2023-03-02T05:36:31.438Z,4.90
2023-03-02T05:39:00.581Z,4.57
2023-03-02T05:41:28.501Z,5.15
2023-03-02T05:43:56.331Z,4.82
2023-03-02T05:46:24.705Z,4.95
2023-03-02T05:48:52.502Z,5.68
2023-03-02T05:51:20.392Z,5.63
2023-03-02T05:53:48.186Z,6.10
2023-03-02T05:56:17.404Z,5.78
2023-03-02T05:58:45.168Z,6.25
2023-03-02T06:01:15.452Z,5.80
2023-03-02T06:03:44.820Z,6.28
2023-03-02T06:06:14.579Z,5.72
2023-03-02T06:08:43.279Z,5.93
2023-03-02T06:11:11.514Z,5.40
2023-03-02T06:13:41.507Z,5.47
2023-03-02T06:16:09.679Z,5.80
2023-03-02T06:18:40.431Z,5.10
2023-03-02T06:25:03.431Z,4.93
2023-03-02T06:27:31.199Z,5.32
2023-03-02T06:30:00.293Z,6.10
2023-03-02T06:32:34.089Z,5.55
2023-03-02T06:35:02.109Z,5.82
2023-03-02T06:37:30.402Z,5.53
2023-03-02T06:39:58.645Z,5.50
2023-03-02T06:42:27.787Z,5.55
2023-03-02T06:44:55.815Z,5.72
2023-03-02T06:47:25.422Z,5.68
2023-03-02T06:49:53.204Z,5.88
2023-03-02T06:52:21.000Z,5.57
2023-03-02T06:54:48.838Z,6.03
2023-03-02T06:57:16.544Z,5.82
2023-03-02T06:59:44.316Z,6.03
2023-03-02T07:02:12.521Z,5.82
2023-03-02T07:04:41.846Z,6.80
2023-03-02T07:07:09.864Z,6.20
2023-03-02T07:09:37.711Z,6.13
2023-03-02T07:12:05.617Z,6.50
2023-03-02T07:14:35.547Z,6.25
2023-03-02T07:17:05.415Z,6.32
2023-03-02T07:19:33.307Z,6.10
2023-03-02T07:22:02.384Z,5.97
2023-03-02T07:24:30.216Z,6.60
2023-03-02T07:26:58.020Z,6.30
2023-03-02T07:29:25.862Z,5.75
2023-03-02T07:31:57.098Z,5.90
2023-03-02T07:34:25.618Z,5.53
2023-03-02T07:36:53.984Z,6.05
2023-03-02T07:39:23.318Z,6.45
2023-03-02T07:41:51.037Z,5.95
2023-03-02T07:44:22.448Z,6.47
2023-03-02T07:46:50.323Z,6.32
2023-03-02T07:49:18.132Z,6.10
2023-03-02T07:51:45.976Z,6.68
2023-03-02T07:54:13.732Z,6.28
2023-03-02T07:56:42.904Z,6.28
2023-03-02T07:59:12.081Z,6.07
2023-03-02T08:01:39.928Z,6.30
2023-03-02T08:04:07.665Z,6.13
2023-03-02T08:06:35.486Z,6.05
2023-03-02T08:09:03.468Z,6.22
2023-03-02T08:11:31.401Z,5.78
2023-03-02T08:14:02.660Z,6.18
2023-03-02T08:16:31.214Z,5.25
2023-03-02T08:18:59.990Z,6.35
2023-03-02T08:21:29.203Z,6.88
2023-03-02T08:23:58.433Z,6.43
2023-03-02T08:26:26.324Z,6.18
2023-03-02T08:28:54.026Z,6.00
2023-03-02T08:31:23.203Z,5.97
2023-03-02T08:33:51.081Z,6.00
2023-03-02T08:36:20.510Z,6.55
2023-03-02T08:38:49.835Z,6.30
2023-03-02T08:41:21.040Z,5.45
2023-03-02T08:43:49.404Z,6.10
2023-03-02T08:46:19.600Z,6.53
2023-03-02T08:48:51.197Z,5.88
2023-03-02T08:51:21.558Z,5.97
2023-03-02T08:53:51.607Z,5.90
2023-03-02T08:56:21.328Z,5.88
2023-03-02T08:58:49.614Z,6.10
2023-03-02T09:01:19.611Z,5.60
2023-03-02T09:03:49.194Z,5.95
2023-03-02T09:06:16.935Z,6.47
2023-03-02T09:08:45.322Z,5.80
2023-03-02T09:11:13.430Z,5.80
2023-03-02T09:13:41.392Z,5.78
2023-03-02T09:16:09.962Z,6.07
2023-03-02T09:18:37.824Z,6.82
2023-03-02T09:21:07.431Z,5.43
2023-03-02T09:23:36.484Z,5.70
2023-03-02T09:26:04.841Z,6.50
2023-03-02T09:28:33.125Z,5.85
2023-03-02T09:31:04.218Z,5.95
2023-03-02T09:33:33.379Z,5.90
2023-03-02T09:36:02.323Z,6.20
2023-03-02T09:38:31.554Z,5.63
2023-03-02T09:41:21.076Z,5.40
2023-03-02T09:44:00.090Z,5.22
2023-03-02T09:46:34.494Z,5.75
2023-03-02T09:49:15.999Z,5.53
2023-03-02T09:51:48.356Z,5.47
2023-03-02T09:54:24.208Z,5.63
2023-03-02T09:56:57.163Z,6.47
2023-03-02T10:02:01.301Z,6.03
2023-03-02T10:04:31.391Z,6.60
2023-03-02T10:07:06.970Z,5.75
2023-03-02T10:09:36.124Z,6.70
2023-03-02T10:12:22.564Z,6.00
2023-03-02T10:14:56.865Z,5.47
2023-03-02T10:17:41.121Z,6.20
2023-03-02T10:20:18.204Z,5.20
2023-03-02T10:22:49.386Z,5.75
2023-03-02T10:25:31.602Z,5.60
2023-03-02T10:28:03.744Z,5.50
2023-03-02T10:30:36.394Z,5.10
2023-03-02T10:33:11.303Z,5.50
2023-03-02T10:35:39.403Z,5.65
2023-03-02T10:38:14.240Z,6.35
2023-03-02T10:40:46.588Z,6.05
2023-03-02T10:43:19.388Z,5.45
2023-03-02T10:48:16.266Z,5.10
2023-03-02T10:50:45.321Z,5.65
2023-03-02T10:53:19.008Z,5.15
2023-03-02T10:55:50.233Z,5.68
2023-03-02T10:58:25.949Z,6.00
2023-03-02T11:01:01.805Z,6.00
2023-03-02T11:03:30.319Z,6.30
2023-03-02T11:05:58.608Z,6.60
2023-03-02T11:08:28.628Z,6.18
2023-03-02T11:11:01.211Z,7.03
2023-03-02T11:13:32.249Z,6.10
2023-03-02T11:16:01.478Z,7.30
2023-03-02T11:18:33.932Z,6.50
2023-03-02T11:21:05.588Z,6.32
2023-03-02T11:23:46.564Z,6.68
2023-03-02T11:26:22.701Z,6.05
2023-03-02T11:28:59.360Z,6.88
2023-03-02T11:31:37.864Z,5.90
2023-03-02T11:34:21.239Z,5.43
2023-03-02T11:37:02.332Z,5.65
2023-03-02T11:39:49.999Z,5.72
2023-03-02T11:42:28.045Z,5.13
2023-03-02T11:44:56.243Z,6.35
2023-03-02T11:47:24.567Z,6.28
2023-03-02T11:49:56.209Z,5.80
2023-03-02T11:52:28.403Z,5.43
2023-03-02T11:55:00.458Z,5.57
2023-03-02T11:57:34.303Z,6.03
2023-03-02T12:00:04.804Z,5.85
2023-03-02T12:02:40.236Z,5.28
2023-03-02T12:05:24.168Z,5.63
2023-03-02T12:07:58.834Z,5.40
2023-03-02T12:10:32.297Z,5.57
2023-03-02T12:13:13.901Z,5.78
2023-03-02T12:15:43.446Z,5.78
2023-03-02T12:18:31.690Z,5.60
2023-03-02T12:21:06.035Z,5.40
2023-03-02T12:23:36.585Z,5.20
2023-03-02T12:26:09.304Z,5.32
2023-03-02T12:28:40.715Z,5.53
2023-03-02T12:31:14.525Z,5.88
2023-03-02T12:33:46.950Z,5.90
2023-03-02T12:36:19.361Z,6.00
2023-03-02T12:39:00.543Z,5.80
2023-03-02T12:41:41.481Z,6.15
2023-03-02T12:44:24.395Z,5.57
2023-03-02T12:46:54.278Z,5.78
2023-03-02T12:49:35.292Z,5.60
2023-03-02T12:52:05.666Z,5.00
2023-03-02T12:54:35.290Z,5.45
2023-03-02T12:57:08.976Z,5.50
2023-03-02T12:59:38.316Z,4.88
2023-03-02T13:02:18.321Z,4.88
2023-03-02T13:04:52.702Z,5.28
2023-03-02T13:07:25.191Z,5.03
2023-03-02T13:09:56.899Z,4.93
2023-03-02T13:12:28.044Z,5.13
2023-03-02T13:14:59.439Z,5.30
2023-03-02T13:17:30.943Z,4.95
2023-03-02T13:20:00.813Z,5.35
2023-03-02T13:22:29.291Z,5.05
2023-03-02T13:25:00.326Z,5.70
2023-03-02T13:27:28.661Z,5.22
2023-03-02T13:30:09.049Z,4.97
2023-03-02T13:32:41.160Z,4.85
2023-03-02T13:35:19.152Z,4.40
2023-03-02T13:37:47.211Z,4.40
2023-03-02T13:40:34.960Z,4.88
2023-03-02T13:43:02.824Z,4.82
2023-03-02T13:45:34.037Z,4.70
2023-03-02T13:48:15.305Z,4.57
2023-03-02T13:50:52.531Z,4.50
2023-03-02T13:53:21.373Z,4.68
2023-03-02T13:55:49.773Z,4.45
2023-03-02T13:58:20.035Z,4.60
2023-03-02T14:00:50.507Z,4.10
2023-03-02T14:03:26.806Z,4.93
2023-03-02T14:05:55.646Z,4.25
2023-03-02T14:08:23.675Z,4.53
2023-03-02T14:10:54.209Z,4.15
2023-03-02T14:13:24.972Z,4.00
2023-03-02T14:15:54.898Z,4.15
2023-03-02T14:18:30.375Z,4.63
2023-03-02T14:20:58.645Z,4.28
2023-03-02T14:23:27.242Z,4.65
2023-03-02T14:25:57.417Z,4.72
2023-03-02T14:28:29.041Z,5.10
2023-03-02T14:30:59.534Z,4.57
2023-03-02T14:33:27.803Z,4.28
2023-03-02T14:35:58.261Z,4.07
2023-03-02T14:38:28.140Z,4.40
2023-03-02T14:40:56.299Z,4.07
2023-03-02T14:43:25.206Z,4.22
2023-03-02T14:45:53.354Z,3.58
2023-03-02T14:48:22.596Z,3.70
2023-03-02T14:50:52.523Z,3.47
2023-03-02T14:53:27.236Z,4.13
2023-03-02T14:55:55.045Z,4.10
2023-03-02T14:58:30.637Z,3.97
2023-03-02T15:01:01.036Z,3.72
2023-03-02T15:03:30.546Z,3.67
2023-03-02T15:06:01.789Z,3.72
2023-03-02T15:08:30.547Z,3.72
2023-03-02T15:10:58.485Z,3.75
2023-03-02T15:13:26.323Z,3.95
2023-03-02T15:15:54.242Z,2.97
2023-03-02T15:18:22.109Z,4.28
2023-03-02T15:20:51.216Z,4.20
2023-03-02T15:23:19.026Z,3.30
2023-03-02T15:25:46.728Z,3.90
2023-03-02T15:28:14.460Z,3.63
2023-03-02T15:30:42.186Z,3.70
2023-03-02T15:33:10.077Z,3.60
2023-03-02T15:35:40.173Z,3.97
2023-03-02T15:38:09.516Z,4.07
2023-03-02T15:40:37.549Z,3.88
2023-03-02T15:43:05.362Z,4.15
2023-03-02T15:45:33.193Z,3.97
2023-03-02T15:48:00.948Z,4.13
2023-03-02T15:50:28.701Z,3.97
2023-03-02T15:52:57.469Z,4.10
2023-03-02T15:55:27.094Z,4.00
2023-03-02T15:57:58.000Z,3.67
2023-03-02T16:00:25.994Z,3.85
2023-03-02T16:02:53.845Z,3.55
2023-03-02T16:05:21.807Z,3.88
2023-03-02T16:07:49.581Z,3.70
2023-03-02T16:10:19.647Z,3.92
2023-03-02T16:12:48.741Z,4.47
2023-03-02T16:15:16.668Z,4.13
2023-03-02T16:17:44.463Z,4.07
2023-03-02T16:20:13.421Z,3.95
2023-03-02T16:22:41.249Z,4.38
2023-03-02T16:25:09.860Z,3.78
2023-03-02T16:27:38.039Z,3.45
2023-03-02T16:30:08.726Z,3.80
2023-03-02T16:32:36.636Z,3.88
2023-03-02T16:35:04.760Z,3.63
2023-03-02T16:37:32.653Z,3.90
2023-03-02T16:40:00.418Z,4.22
2023-03-02T16:42:30.318Z,3.63
2023-03-02T16:44:58.173Z,4.30
2023-03-02T16:47:27.360Z,3.80
2023-03-02T16:49:55.156Z,3.97
2023-03-02T16:52:23.047Z,4.13
2023-03-02T16:54:50.882Z,4.35
2023-03-02T16:57:18.679Z,4.43
2023-03-02T16:59:46.494Z,4.35
2023-03-02T17:02:15.635Z,4.22
2023-03-02T17:04:45.127Z,4.55
2023-03-02T17:07:12.980Z,4.63
2023-03-02T17:09:42.086Z,4.57
2023-03-02T17:12:09.878Z,4.32
2023-03-02T17:14:37.693Z,4.43
2023-03-02T17:17:05.574Z,5.80
2023-03-02T17:19:33.718Z,5.50
2023-03-02T17:22:03.641Z,5.55
2023-03-02T17:24:31.837Z,6.82
2023-03-02T17:26:59.668Z,6.25
2023-03-02T17:29:27.825Z,6.00
2023-03-02T17:31:56.238Z,7.30
2023-03-02T17:34:24.121Z,6.82
2023-03-02T17:36:51.882Z,6.95
2023-03-02T17:39:21.044Z,7.22
2023-03-02T17:41:48.842Z,6.65
2023-03-02T17:44:16.585Z,6.60
2023-03-02T17:46:45.377Z,6.50
2023-03-02T17:49:13.760Z,7.10
2023-03-02T17:51:41.551Z,6.55
2023-03-02T17:54:09.278Z,7.00
2023-03-02T17:56:38.904Z,6.93
2023-03-02T17:59:06.792Z,7.00
2023-03-02T18:01:34.794Z,6.85
2023-03-02T18:04:02.637Z,7.63
2023-03-02T18:06:30.443Z,7.80
2023-03-02T18:08:58.200Z,7.90
2023-03-02T18:11:27.160Z,7.18
2023-03-02T18:13:56.494Z,7.32
2023-03-02T18:16:27.871Z,7.53
2023-03-02T18:18:55.899Z,7.82
2023-03-02T18:21:24.391Z,8.05
2023-03-02T18:23:52.275Z,8.38
2023-03-02T18:26:20.010Z,8.75
2023-03-02T18:28:47.854Z,9.00
2023-03-02T18:31:18.072Z,8.63
2023-03-02T18:33:46.308Z,8.43
2023-03-02T18:36:14.367Z,7.85
2023-03-02T18:38:42.545Z,7.20
2023-03-02T18:41:11.032Z,7.88
2023-03-02T18:43:41.864Z,8.00
2023-03-02T18:46:20.158Z,8.68
2023-03-02T18:48:49.401Z,8.15
2023-03-02T18:51:17.530Z,8.52
2023-03-02T18:53:45.857Z,8.45
2023-03-02T18:56:13.904Z,7.70
2023-03-02T18:58:42.313Z,7.40
2023-03-02T19:01:10.194Z,8.30
2023-03-02T19:03:40.133Z,7.65
2023-03-02T19:06:08.624Z,8.30
2023-03-02T19:08:36.954Z,7.05
2023-03-02T19:11:06.334Z,7.90
2023-03-02T19:13:34.821Z,8.50
2023-03-02T19:16:02.955Z,8.38
2023-03-02T19:18:31.284Z,8.05
2023-03-02T19:21:01.207Z,9.15
2023-03-02T19:23:28.970Z,8.93
2023-03-02T19:25:56.725Z,8.45
2023-03-02T19:28:24.673Z,8.50
2023-03-02T19:30:52.646Z,9.85
2023-03-02T19:33:20.449Z,8.88
2023-03-02T19:35:48.287Z,10.25
2023-03-02T19:38:18.267Z,9.52
2023-03-02T19:40:46.057Z,9.77
2023-03-02T19:43:13.830Z,10.43
2023-03-02T19:45:41.762Z,10.65
2023-03-02T19:48:13.519Z,10.25
2023-03-02T19:50:41.668Z,11.88
2023-03-02T19:53:10.274Z,11.52
2023-03-02T19:55:39.705Z,11.65
2023-03-02T19:58:08.089Z,11.10
2023-03-02T20:00:36.256Z,11.13
2023-03-02T20:03:05.933Z,11.30
2023-03-02T20:05:33.779Z,10.63
2023-03-02T20:08:01.567Z,10.77
2023-03-02T20:10:31.487Z,10.20
2023-03-02T20:13:00.932Z,9.85
2023-03-02T20:15:29.900Z,10.10
2023-03-02T20:17:59.394Z,9.52
2023-03-02T20:20:28.150Z,10.05
2023-03-02T20:22:55.934Z,10.10
2023-03-02T20:25:24.255Z,10.70
2023-03-02T20:27:52.942Z,10.02
2023-03-02T20:30:27.669Z,10.73
2023-03-02T20:32:57.216Z,9.90
2023-03-02T20:35:28.157Z,9.93
2023-03-02T20:37:57.417Z,10.32
2023-03-02T20:40:26.654Z,10.55
2023-03-02T20:42:55.118Z,10.48
2023-03-02T20:45:24.957Z,10.15
2023-03-02T20:47:52.907Z,10.23
2023-03-02T20:50:24.472Z,10.57
2023-03-02T20:52:52.388Z,10.98
2023-03-02T20:55:20.497Z,9.85
2023-03-02T20:57:48.963Z,10.27
2023-03-02T21:00:21.195Z,10.75
2023-03-02T21:02:50.843Z,10.10
2023-03-02T21:05:20.186Z,11.43
2023-03-02T21:07:49.215Z,10.88
2023-03-02T21:10:20.191Z,10.43
2023-03-02T21:12:49.001Z,10.32
2023-03-02T21:15:17.613Z,10.82
2023-03-02T21:17:45.440Z,10.82
2023-03-02T21:20:18.382Z,10.90
2023-03-02T21:22:46.972Z,12.13
2023-03-02T21:25:16.960Z,10.93
2023-03-02T21:27:45.786Z,10.75
2023-03-02T21:30:19.700Z,10.85
2023-03-02T21:32:48.269Z,10.73
2023-03-02T21:35:19.900Z,10.75
2023-03-02T21:37:49.309Z,10.38
2023-03-02T21:40:20.338Z,11.15
2023-03-02T21:42:48.331Z,10.93
2023-03-02T21:45:16.115Z,10.98
2023-03-02T21:47:44.588Z,11.88
2023-03-02T21:50:16.798Z,11.73
2023-03-02T21:52:45.922Z,11.63
2023-03-02T21:55:14.678Z,11.50
2023-03-02T21:57:42.974Z,11.50
2023-03-02T22:00:20.740Z,11.18
2023-03-02T22:02:48.674Z,12.15
2023-03-02T22:05:16.620Z,12.38
2023-03-02T22:07:45.977Z,12.85
2023-03-02T22:10:23.939Z,12.80
2023-03-02T22:12:56.335Z,13.13
2023-03-02T22:15:24.242Z,12.07
2023-03-02T22:17:52.351Z,12.43
2023-03-02T22:20:21.030Z,11.85
2023-03-02T22:22:54.491Z,12.40
2023-03-02T22:25:22.672Z,12.23
2023-03-02T22:27:50.490Z,12.38
2023-03-02T22:30:22.212Z,12.45
2023-03-02T22:32:50.606Z,12.00
2023-03-02T22:35:24.600Z,12.85
2023-03-02T22:38:01.002Z,12.50
2023-03-02T22:40:31.381Z,11.75
2023-03-02T22:43:21.322Z,12.38
2023-03-02T22:45:49.115Z,12.43
2023-03-02T22:48:19.065Z,12.48
2023-03-02T22:50:48.944Z,13.02
2023-03-02T22:53:28.278Z,12.90
2023-03-02T22:55:58.485Z,13.18
2023-03-02T22:58:31.469Z,12.60
2023-03-02T23:03:37.990Z,11.52
2023-03-02T23:06:20.492Z,13.95
2023-03-02T23:08:50.724Z,13.68
2023-03-02T23:11:23.480Z,14.48
2023-03-02T23:13:52.250Z,14.00
2023-03-02T23:16:21.958Z,13.15
2023-03-02T23:18:50.921Z,16.20
2023-03-02T23:21:21.442Z,14.93
2023-03-02T23:23:51.636Z,13.43
2023-03-02T23:26:20.225Z,14.95
2023-03-02T23:28:49.219Z,14.65
2023-03-02T23:31:19.162Z,14.98
2023-03-02T23:33:47.074Z,14.98
2023-03-02T23:36:15.792Z,15.82
2023-03-02T23:38:43.712Z,15.50
2023-03-02T23:41:12.828Z,16.17
2023-03-02T23:43:40.959Z,14.63
2023-03-02T23:46:08.743Z,14.70
2023-03-02T23:48:36.513Z,15.10
2023-03-02T23:51:04.384Z,14.48
2023-03-02T23:53:32.189Z,14.98
2023-03-02T23:56:00.232Z,15.38
2023-03-02T23:58:29.383Z,15.77
